sensor_id;sensor_type;location;lat;lon;timestamp;temperature;humidity
23723;DHT22;12042;52.136;5.584;2022-09-21T05:45:15;8.20;99.90
23723;DHT22;12042;52.136;5.584;2022-09-21T05:59:02;8.10;99.90
23723;DHT22;12042;52.136;5.584;2022-09-21T06:01:50;8.00;99.90
23723;DHT22;12042;52.136;5.584;2022-09-21T06:04:21;8.00;99.90
23723;DHT22;12042;52.136;5.584;2022-09-21T06:06:47;8.00;99.90
23723;DHT22;12042;52.136;5.584;2022-09-21T06:09:13;8.00;99.90
23723;DHT22;12042;52.136;5.584;2022-09-21T06:11:39;8.00;99.90
23723;DHT22;12042;52.136;5.584;2022-09-21T06:14:04;8.10;99.90
23723;DHT22;12042;52.136;5.584;2022-09-21T06:16:40;8.20;99.90
23723;DHT22;12042;52.136;5.584;2022-09-21T06:19:10;8.20;99.90
23723;DHT22;12042;52.136;5.584;2022-09-21T06:21:36;8.20;99.90
23723;DHT22;12042;52.136;5.584;2022-09-21T06:24:02;8.20;99.90
23723;DHT22;12042;52.136;5.584;2022-09-21T06:26:27;8.30;99.90
23723;DHT22;12042;52.136;5.584;2022-09-21T06:28:53;8.40;99.90
23723;DHT22;12042;52.136;5.584;2022-09-21T06:31:19;8.40;99.90
23723;DHT22;12042;52.136;5.584;2022-09-21T06:33:45;8.50;99.90
23723;DHT22;12042;52.136;5.584;2022-09-21T06:36:10;8.60;99.90
23723;DHT22;12042;52.136;5.584;2022-09-21T06:38:36;8.70;99.90
23723;DHT22;12042;52.136;5.584;2022-09-21T06:41:03;8.80;99.90
23723;DHT22;12042;52.136;5.584;2022-09-21T06:43:29;8.90;99.90
23723;DHT22;12042;52.136;5.584;2022-09-21T06:45:57;9.00;99.90
23723;DHT22;12042;52.136;5.584;2022-09-21T06:48:23;9.10;99.90
23723;DHT22;12042;52.136;5.584;2022-09-21T06:50:49;9.10;99.90
23723;DHT22;12042;52.136;5.584;2022-09-21T06:53:16;9.20;99.90
23723;DHT22;12042;52.136;5.584;2022-09-21T06:55:42;9.20;99.90
23723;DHT22;12042;52.136;5.584;2022-09-21T06:58:08;9.30;99.90
23723;DHT22;12042;52.136;5.584;2022-09-21T07:00:33;9.30;99.90
23723;DHT22;12042;52.136;5.584;2022-09-21T07:02:59;9.40;99.90
23723;DHT22;12042;52.136;5.584;2022-09-21T07:05:25;9.40;99.90
23723;DHT22;12042;52.136;5.584;2022-09-21T07:07:56;9.40;99.90
23723;DHT22;12042;52.136;5.584;2022-09-21T07:10:22;9.30;99.90
23723;DHT22;12042;52.136;5.584;2022-09-21T07:12:47;9.30;99.90
23723;DHT22;12042;52.136;5.584;2022-09-21T07:15:16;9.50;99.90
23723;DHT22;12042;52.136;5.584;2022-09-21T07:17:43;9.50;99.90
23723;DHT22;12042;52.136;5.584;2022-09-21T07:20:10;9.70;99.90
23723;DHT22;12042;52.136;5.584;2022-09-21T07:22:38;9.70;99.90
23723;DHT22;12042;52.136;5.584;2022-09-21T07:25:04;9.80;99.90
23723;DHT22;12042;52.136;5.584;2022-09-21T07:27:31;9.90;99.90
23723;DHT22;12042;52.136;5.584;2022-09-21T07:29:57;10.00;99.90
23723;DHT22;12042;52.136;5.584;2022-09-21T07:32:23;10.00;99.90
23723;DHT22;12042;52.136;5.584;2022-09-21T07:34:50;10.10;99.90
23723;DHT22;12042;52.136;5.584;2022-09-21T07:37:20;10.10;99.90
23723;DHT22;12042;52.136;5.584;2022-09-21T07:39:48;10.20;99.90
23723;DHT22;12042;52.136;5.584;2022-09-21T07:42:14;10.20;99.90
23723;DHT22;12042;52.136;5.584;2022-09-21T07:44:39;10.30;99.90
23723;DHT22;12042;52.136;5.584;2022-09-21T07:47:05;10.40;99.90
23723;DHT22;12042;52.136;5.584;2022-09-21T07:49:34;10.50;99.90
23723;DHT22;12042;52.136;5.584;2022-09-21T07:52:00;10.50;99.90
23723;DHT22;12042;52.136;5.584;2022-09-21T07:54:25;10.60;99.90
23723;DHT22;12042;52.136;5.584;2022-09-21T07:56:51;10.60;99.90
23723;DHT22;12042;52.136;5.584;2022-09-21T07:59:35;10.80;99.90
23723;DHT22;12042;52.136;5.584;2022-09-21T08:02:01;10.90;99.90
23723;DHT22;12042;52.136;5.584;2022-09-21T08:04:26;11.00;99.90
23723;DHT22;12042;52.136;5.584;2022-09-21T08:06:52;11.00;99.90
23723;DHT22;12042;52.136;5.584;2022-09-21T08:09:18;11.10;99.90
23723;DHT22;12042;52.136;5.584;2022-09-21T08:11:43;11.20;99.90
23723;DHT22;12042;52.136;5.584;2022-09-21T08:14:09;11.20;99.90
23723;DHT22;12042;52.136;5.584;2022-09-21T08:16:37;11.30;99.90
23723;DHT22;12042;52.136;5.584;2022-09-21T08:19:05;11.30;99.90
23723;DHT22;12042;52.136;5.584;2022-09-21T08:21:31;11.40;99.90
23723;DHT22;12042;52.136;5.584;2022-09-21T08:23:57;11.50;99.90
23723;DHT22;12042;52.136;5.584;2022-09-21T08:26:22;11.60;99.90
23723;DHT22;12042;52.136;5.584;2022-09-21T08:28:50;11.60;99.90
23723;DHT22;12042;52.136;5.584;2022-09-21T08:31:18;11.70;99.90
23723;DHT22;12042;52.136;5.584;2022-09-21T08:33:45;11.70;99.90
23723;DHT22;12042;52.136;5.584;2022-09-21T08:36:10;11.80;99.90
23723;DHT22;12042;52.136;5.584;2022-09-21T08:38:37;11.80;99.90
23723;DHT22;12042;52.136;5.584;2022-09-21T08:41:28;11.90;99.90
23723;DHT22;12042;52.136;5.584;2022-09-21T08:44:10;12.00;99.90
23723;DHT22;12042;52.136;5.584;2022-09-21T08:46:42;12.00;99.90
23723;DHT22;12042;52.136;5.584;2022-09-21T08:49:19;12.10;99.90
23723;DHT22;12042;52.136;5.584;2022-09-21T08:52:05;12.20;99.90
23723;DHT22;12042;52.136;5.584;2022-09-21T08:55:17;12.30;99.90
23723;DHT22;12042;52.136;5.584;2022-09-21T08:57:29;12.30;99.90
23723;DHT22;12042;52.136;5.584;2022-09-21T08:59:56;12.40;99.90
23723;DHT22;12042;52.136;5.584;2022-09-21T09:14:04;12.80;99.90
23723;DHT22;12042;52.136;5.584;2022-09-21T09:19:32;13.00;99.90
23723;DHT22;12042;52.136;5.584;2022-09-21T09:22:03;13.20;99.90
23723;DHT22;12042;52.136;5.584;2022-09-21T09:24:35;13.30;99.90
23723;DHT22;12042;52.136;5.584;2022-09-21T09:27:26;13.60;99.90
23723;DHT22;12042;52.136;5.584;2022-09-21T09:35:29;14.40;99.90
23723;DHT22;12042;52.136;5.584;2022-09-21T09:38:04;14.60;99.90
23723;DHT22;12042;52.136;5.584;2022-09-21T09:49:38;15.30;99.90
23723;DHT22;12042;52.136;5.584;2022-09-21T09:52:09;15.50;99.90
23723;DHT22;12042;52.136;5.584;2022-09-21T09:54:36;15.50;99.90
23723;DHT22;12042;52.136;5.584;2022-09-21T09:57:03;15.60;99.90
23723;DHT22;12042;52.136;5.584;2022-09-21T09:59:35;15.60;99.90
23723;DHT22;12042;52.136;5.584;2022-09-21T10:04:57;15.70;99.90
23723;DHT22;12042;52.136;5.584;2022-09-21T10:07:40;15.90;99.90
23723;DHT22;12042;52.136;5.584;2022-09-21T10:10:35;16.00;99.90
23723;DHT22;12042;52.136;5.584;2022-09-21T10:15:28;16.30;99.90
23723;DHT22;12042;52.136;5.584;2022-09-21T10:18:27;16.40;99.90
23723;DHT22;12042;52.136;5.584;2022-09-21T10:21:08;16.40;99.90
23723;DHT22;12042;52.136;5.584;2022-09-21T10:23:36;16.50;99.90
23723;DHT22;12042;52.136;5.584;2022-09-21T10:26:07;16.60;99.90
23723;DHT22;12042;52.136;5.584;2022-09-21T10:28:34;16.70;99.90
23723;DHT22;12042;52.136;5.584;2022-09-21T10:31:22;16.80;99.90
23723;DHT22;12042;52.136;5.584;2022-09-21T10:33:54;16.70;99.90
23723;DHT22;12042;52.136;5.584;2022-09-21T10:36:32;16.60;99.90
23723;DHT22;12042;52.136;5.584;2022-09-21T10:41:36;16.80;99.90
23723;DHT22;12042;52.136;5.584;2022-09-21T10:44:02;16.90;99.90
23723;DHT22;12042;52.136;5.584;2022-09-21T10:46:33;17.20;99.90
23723;DHT22;12042;52.136;5.584;2022-09-21T10:49:01;17.50;99.90
23723;DHT22;12042;52.136;5.584;2022-09-21T10:51:28;17.80;99.90
23723;DHT22;12042;52.136;5.584;2022-09-21T10:53:56;17.90;99.90
23723;DHT22;12042;52.136;5.584;2022-09-21T10:56:24;18.20;99.90
23723;DHT22;12042;52.136;5.584;2022-09-21T10:59:12;18.40;99.90
23723;DHT22;12042;52.136;5.584;2022-09-21T11:01:46;18.40;99.90
23723;DHT22;12042;52.136;5.584;2022-09-21T11:04:25;18.30;99.90
23723;DHT22;12042;52.136;5.584;2022-09-21T11:07:00;18.40;99.90
23723;DHT22;12042;52.136;5.584;2022-09-21T11:09:47;18.50;99.90
23723;DHT22;12042;52.136;5.584;2022-09-21T11:18:23;19.40;99.90
23723;DHT22;12042;52.136;5.584;2022-09-21T11:20:55;19.40;99.90
23723;DHT22;12042;52.136;5.584;2022-09-21T11:26:11;19.40;99.90
23723;DHT22;12042;52.136;5.584;2022-09-21T11:34:18;20.00;99.90
23723;DHT22;12042;52.136;5.584;2022-09-21T11:37:09;20.20;99.90
23723;DHT22;12042;52.136;5.584;2022-09-21T11:44:53;20.40;99.90
23723;DHT22;12042;52.136;5.584;2022-09-21T11:50:58;20.10;99.90
23723;DHT22;12042;52.136;5.584;2022-09-21T11:59:34;20.70;99.90
23723;DHT22;12042;52.136;5.584;2022-09-21T12:05:03;20.70;99.90
23723;DHT22;12042;52.136;5.584;2022-09-21T12:11:01;20.00;99.90
23723;DHT22;12042;52.136;5.584;2022-09-21T12:13:39;19.70;99.90
23723;DHT22;12042;52.136;5.584;2022-09-21T12:16:40;19.30;99.90
23723;DHT22;12042;52.136;5.584;2022-09-21T12:19:22;19.10;99.90
23723;DHT22;12042;52.136;5.584;2022-09-21T12:21:55;19.00;99.90
23723;DHT22;12042;52.136;5.584;2022-09-21T12:24:32;19.10;99.90
23723;DHT22;12042;52.136;5.584;2022-09-21T12:27:25;19.10;99.90
23723;DHT22;12042;52.136;5.584;2022-09-21T12:29:56;19.10;99.90
23723;DHT22;12042;52.136;5.584;2022-09-21T12:32:38;19.10;99.90
23723;DHT22;12042;52.136;5.584;2022-09-21T12:35:14;19.20;99.90
23723;DHT22;12042;52.136;5.584;2022-09-21T12:37:46;19.20;99.90
23723;DHT22;12042;52.136;5.584;2022-09-21T12:40:38;19.50;99.90
23723;DHT22;12042;52.136;5.584;2022-09-21T12:45:56;19.30;99.90
23723;DHT22;12042;52.136;5.584;2022-09-21T12:48:35;19.70;99.90
23723;DHT22;12042;52.136;5.584;2022-09-21T12:51:14;19.70;99.90
23723;DHT22;12042;52.136;5.584;2022-09-21T12:53:45;19.80;99.90
23723;DHT22;12042;52.136;5.584;2022-09-21T13:09:42;20.00;99.90
23723;DHT22;12042;52.136;5.584;2022-09-21T13:12:15;20.10;99.90
23723;DHT22;12042;52.136;5.584;2022-09-21T13:14:45;19.90;99.90
23723;DHT22;12042;52.136;5.584;2022-09-21T13:17:23;20.20;99.90
23723;DHT22;12042;52.136;5.584;2022-09-21T13:20:02;20.90;99.90
23723;DHT22;12042;52.136;5.584;2022-09-21T13:22:35;21.50;99.90
23723;DHT22;12042;52.136;5.584;2022-09-21T13:30:30;22.30;99.90
23723;DHT22;12042;52.136;5.584;2022-09-21T13:32:56;21.80;99.90
23723;DHT22;12042;52.136;5.584;2022-09-21T13:46:46;22.40;99.90
23723;DHT22;12042;52.136;5.584;2022-09-21T13:52:05;21.50;99.90
23723;DHT22;12042;52.136;5.584;2022-09-21T14:13:27;18.50;99.90
23723;DHT22;12042;52.136;5.584;2022-09-21T14:15:53;18.40;99.90
23723;DHT22;12042;52.136;5.584;2022-09-21T14:18:33;18.20;99.90
23723;DHT22;12042;52.136;5.584;2022-09-21T14:23:37;18.20;99.90
23723;DHT22;12042;52.136;5.584;2022-09-21T14:29:15;18.30;99.90
23723;DHT22;12042;52.136;5.584;2022-09-21T14:31:42;18.40;99.90
23723;DHT22;12042;52.136;5.584;2022-09-21T14:34:20;18.40;99.90
23723;DHT22;12042;52.136;5.584;2022-09-21T14:36:49;18.60;99.90
23723;DHT22;12042;52.136;5.584;2022-09-21T14:39:30;18.60;99.90
23723;DHT22;12042;52.136;5.584;2022-09-21T14:42:00;18.50;99.90
23723;DHT22;12042;52.136;5.584;2022-09-21T14:44:29;18.40;99.90
23723;DHT22;12042;52.136;5.584;2022-09-21T14:47:29;18.40;99.90
23723;DHT22;12042;52.136;5.584;2022-09-21T14:50:15;18.60;99.90
23723;DHT22;12042;52.136;5.584;2022-09-21T14:55:50;18.60;99.90
23723;DHT22;12042;52.136;5.584;2022-09-21T15:01:33;19.00;99.90
23723;DHT22;12042;52.136;5.584;2022-09-21T15:10:17;20.40;99.90
23723;DHT22;12042;52.136;5.584;2022-09-21T15:21:40;20.80;99.90
23723;DHT22;12042;52.136;5.584;2022-09-21T15:24:24;21.20;99.90
23723;DHT22;12042;52.136;5.584;2022-09-21T15:26:52;21.70;99.90
23723;DHT22;12042;52.136;5.584;2022-09-21T15:29:25;22.40;99.90
23723;DHT22;12042;52.136;5.584;2022-09-21T15:31:51;23.00;99.90
23723;DHT22;12042;52.136;5.584;2022-09-21T15:34:17;23.40;99.90
23723;DHT22;12042;52.136;5.584;2022-09-21T15:36:45;23.50;99.90
23723;DHT22;12042;52.136;5.584;2022-09-21T15:39:28;23.70;99.90
23723;DHT22;12042;52.136;5.584;2022-09-21T15:42:11;23.70;99.90
23723;DHT22;12042;52.136;5.584;2022-09-21T15:44:42;23.00;99.90
23723;DHT22;12042;52.136;5.584;2022-09-21T15:47:11;21.90;99.90
23723;DHT22;12042;52.136;5.584;2022-09-21T15:49:37;21.40;99.90
23723;DHT22;12042;52.136;5.584;2022-09-21T15:52:12;21.30;99.90
23723;DHT22;12042;52.136;5.584;2022-09-21T15:54:45;20.80;99.90
23723;DHT22;12042;52.136;5.584;2022-09-21T15:57:35;20.20;99.90
23723;DHT22;12042;52.136;5.584;2022-09-21T16:00:23;19.40;99.90
23723;DHT22;12042;52.136;5.584;2022-09-21T16:03:19;18.80;99.90
23723;DHT22;12042;52.136;5.584;2022-09-21T16:05:48;18.50;99.90
23723;DHT22;12042;52.136;5.584;2022-09-21T16:08:34;18.20;99.90
23723;DHT22;12042;52.136;5.584;2022-09-21T16:11:11;18.20;99.90
23723;DHT22;12042;52.136;5.584;2022-09-21T16:13:37;18.30;99.90
23723;DHT22;12042;52.136;5.584;2022-09-21T16:16:21;18.30;99.90
23723;DHT22;12042;52.136;5.584;2022-09-21T16:18:52;18.40;99.90
23723;DHT22;12042;52.136;5.584;2022-09-21T16:21:33;18.50;99.90
23723;DHT22;12042;52.136;5.584;2022-09-21T16:24:18;18.70;99.90
23723;DHT22;12042;52.136;5.584;2022-09-21T16:26:56;19.10;99.90
23723;DHT22;12042;52.136;5.584;2022-09-21T16:29:24;19.10;99.90
23723;DHT22;12042;52.136;5.584;2022-09-21T16:31:54;19.30;99.90
23723;DHT22;12042;52.136;5.584;2022-09-21T16:34:38;19.50;99.90
23723;DHT22;12042;52.136;5.584;2022-09-21T16:39:47;19.50;99.90
23723;DHT22;12042;52.136;5.584;2022-09-21T16:42:13;19.10;99.90
23723;DHT22;12042;52.136;5.584;2022-09-21T16:44:39;18.90;99.90
23723;DHT22;12042;52.136;5.584;2022-09-21T16:47:21;18.50;99.90
23723;DHT22;12042;52.136;5.584;2022-09-21T16:49:50;18.20;99.90
23723;DHT22;12042;52.136;5.584;2022-09-21T16:52:20;18.00;99.90
23723;DHT22;12042;52.136;5.584;2022-09-21T16:54:47;17.90;99.90
23723;DHT22;12042;52.136;5.584;2022-09-21T16:57:14;18.00;99.90
23723;DHT22;12042;52.136;5.584;2022-09-21T16:59:43;18.20;99.90
23723;DHT22;12042;52.136;5.584;2022-09-21T17:02:10;18.20;99.90
23723;DHT22;12042;52.136;5.584;2022-09-21T17:04:38;18.10;99.90
23723;DHT22;12042;52.136;5.584;2022-09-21T17:07:04;18.10;99.90
23723;DHT22;12042;52.136;5.584;2022-09-21T17:09:36;18.10;99.90
23723;DHT22;12042;52.136;5.584;2022-09-21T17:12:07;18.20;99.90
23723;DHT22;12042;52.136;5.584;2022-09-21T17:14:34;18.20;99.90
23723;DHT22;12042;52.136;5.584;2022-09-21T17:19:37;18.10;99.90
23723;DHT22;12042;52.136;5.584;2022-09-21T17:22:04;17.90;99.90
23723;DHT22;12042;52.136;5.584;2022-09-21T17:24:31;17.70;99.90
23723;DHT22;12042;52.136;5.584;2022-09-21T17:26:57;17.60;99.90
23723;DHT22;12042;52.136;5.584;2022-09-21T17:29:25;17.60;99.90
23723;DHT22;12042;52.136;5.584;2022-09-21T17:31:55;17.40;99.90
23723;DHT22;12042;52.136;5.584;2022-09-21T17:34:26;17.20;99.90
23723;DHT22;12042;52.136;5.584;2022-09-21T17:36:53;17.20;99.90
23723;DHT22;12042;52.136;5.584;2022-09-21T17:39:20;17.30;99.90
23723;DHT22;12042;52.136;5.584;2022-09-21T17:41:50;17.30;99.90
23723;DHT22;12042;52.136;5.584;2022-09-21T17:45:09;17.10;99.90
23723;DHT22;12042;52.136;5.584;2022-09-21T17:47:28;17.10;99.90
23723;DHT22;12042;52.136;5.584;2022-09-21T17:52:36;16.80;99.90
23723;DHT22;12042;52.136;5.584;2022-09-21T17:55:20;16.70;99.90
23723;DHT22;12042;52.136;5.584;2022-09-21T17:58:22;16.70;99.90
23723;DHT22;12042;52.136;5.584;2022-09-21T18:03:23;16.80;99.90
23723;DHT22;12042;52.136;5.584;2022-09-21T18:05:51;16.70;99.90
23723;DHT22;12042;52.136;5.584;2022-09-21T18:08:22;16.70;99.90
23723;DHT22;12042;52.136;5.584;2022-09-21T18:17:55;16.30;99.90
23723;DHT22;12042;52.136;5.584;2022-09-21T18:25:10;16.20;99.90
23723;DHT22;12042;52.136;5.584;2022-09-21T18:27:39;16.10;99.90
23723;DHT22;12042;52.136;5.584;2022-09-21T18:30:05;15.90;99.90
23723;DHT22;12042;52.136;5.584;2022-09-21T18:35:37;15.50;99.90
23723;DHT22;12042;52.136;5.584;2022-09-21T18:41:10;15.50;99.90
23723;DHT22;12042;52.136;5.584;2022-09-21T18:43:59;15.60;99.90
23723;DHT22;12042;52.136;5.584;2022-09-21T18:49:27;15.60;99.90
23723;DHT22;12042;52.136;5.584;2022-09-21T18:52:59;15.60;99.90
23723;DHT22;12042;52.136;5.584;2022-09-21T18:55:21;15.50;99.90
23723;DHT22;12042;52.136;5.584;2022-09-21T18:57:49;15.30;99.90
23723;DHT22;12042;52.136;5.584;2022-09-21T19:00:16;15.30;99.90
23723;DHT22;12042;52.136;5.584;2022-09-21T19:02:42;15.30;99.90
23723;DHT22;12042;52.136;5.584;2022-09-21T19:05:11;15.20;99.90
23723;DHT22;12042;52.136;5.584;2022-09-21T19:07:43;15.20;99.90
23723;DHT22;12042;52.136;5.584;2022-09-21T19:10:27;15.10;99.90
23723;DHT22;12042;52.136;5.584;2022-09-21T19:13:13;15.10;99.90
23723;DHT22;12042;52.136;5.584;2022-09-21T19:16:05;14.90;99.90
23723;DHT22;12042;52.136;5.584;2022-09-21T19:21:43;14.80;99.90
23723;DHT22;12042;52.136;5.584;2022-09-21T19:24:16;14.70;99.90
23723;DHT22;12042;52.136;5.584;2022-09-21T19:27:17;14.50;99.90
23723;DHT22;12042;52.136;5.584;2022-09-21T19:30:01;14.50;99.90
23723;DHT22;12042;52.136;5.584;2022-09-21T19:32:54;14.50;99.90
23723;DHT22;12042;52.136;5.584;2022-09-21T19:38:00;14.30;99.90
23723;DHT22;12042;52.136;5.584;2022-09-21T19:40:28;14.40;99.90
23723;DHT22;12042;52.136;5.584;2022-09-21T19:45:37;14.60;99.90
23723;DHT22;12042;52.136;5.584;2022-09-21T19:48:15;14.50;99.90
23723;DHT22;12042;52.136;5.584;2022-09-21T19:50:51;14.60;99.90
23723;DHT22;12042;52.136;5.584;2022-09-21T19:53:22;14.40;99.90
23723;DHT22;12042;52.136;5.584;2022-09-21T19:56:12;14.40;99.90
23723;DHT22;12042;52.136;5.584;2022-09-21T19:58:57;14.40;99.90
23723;DHT22;12042;52.136;5.584;2022-09-21T20:01:51;14.30;99.90
23723;DHT22;12042;52.136;5.584;2022-09-21T20:04:42;14.20;99.90
23723;DHT22;12042;52.136;5.584;2022-09-21T20:07:43;14.00;99.90
23723;DHT22;12042;52.136;5.584;2022-09-21T20:15:53;13.80;99.90
23723;DHT22;12042;52.136;5.584;2022-09-21T20:18:46;13.70;99.90
23723;DHT22;12042;52.136;5.584;2022-09-21T20:21:15;13.60;99.90
23723;DHT22;12042;52.136;5.584;2022-09-21T20:23:44;13.60;99.90
23723;DHT22;12042;52.136;5.584;2022-09-21T20:26:30;13.60;99.90
23723;DHT22;12042;52.136;5.584;2022-09-21T20:28:55;13.40;99.90
23723;DHT22;12042;52.136;5.584;2022-09-21T20:31:23;13.40;99.90
23723;DHT22;12042;52.136;5.584;2022-09-21T20:33:49;13.40;99.90
23723;DHT22;12042;52.136;5.584;2022-09-21T20:36:15;13.50;99.90
23723;DHT22;12042;52.136;5.584;2022-09-21T20:38:41;13.50;99.90
23723;DHT22;12042;52.136;5.584;2022-09-21T20:41:14;13.50;99.90
23723;DHT22;12042;52.136;5.584;2022-09-21T20:43:41;13.40;99.90
23723;DHT22;12042;52.136;5.584;2022-09-21T20:46:10;13.20;99.90
23723;DHT22;12042;52.136;5.584;2022-09-21T20:48:36;13.10;99.90
23723;DHT22;12042;52.136;5.584;2022-09-21T20:51:02;13.10;99.90
23723;DHT22;12042;52.136;5.584;2022-09-21T20:53:31;13.10;99.90
23723;DHT22;12042;52.136;5.584;2022-09-21T20:56:00;13.00;99.90
23723;DHT22;12042;52.136;5.584;2022-09-21T20:58:27;12.90;99.90
23723;DHT22;12042;52.136;5.584;2022-09-21T21:00:53;12.80;99.90
23723;DHT22;12042;52.136;5.584;2022-09-21T21:03:18;12.80;99.90
23723;DHT22;12042;52.136;5.584;2022-09-21T21:05:44;12.80;99.90
23723;DHT22;12042;52.136;5.584;2022-09-21T21:08:10;12.70;99.90
